Ocean King D — V7TV6 — position and weather

sailwx.info

Track history (hours):
 
Tides and Currents Weather Stations Pressure Air Temp Water Temp Dewpoint Dewpoint Depression Visibility Wind Speed Wind Dir Waves Ship Positions

Ocean King D

Last reported at 2016-Jul-06 20:13 UTC. Time now 2016-Jul-23 13:10 UTC.
Position N 31°16' E 032°19'.
Warning: this ship's position is 16 days out of date.

Length 190 m; draft 11.8 m.

Type: Cargo ship. MMSI: 538003892.

Date/timePositionNaut miles runAvg speedWind from/ knotsBaromVisibWave heightAir tempDewpointWater temp
2016-Jul-06 20:13N 31°16' E 032°19'7 1.4
2016-Jul-06 15:13N 31°23' E 032°20'3 1.1
2016-Jul-06 12:26N 31°25' E 032°18'8 9.2
2016-Jul-06 11:33N 31°32' E 032°12'9011.2
2016-Jul-06 03:32N 32°20' E 030°43'1110.9
2016-Jul-06 02:33N 32°21' E 030°30'  
2016-Jul-03 04:21N 35°44' E 015°20'910.8
2016-Jul-03 03:33N 35°47' E 015°10'1111.0
2016-Jul-03 02:33N 35°50' E 014°57'9 9.1
2016-Jul-03 01:33N 35°53' E 014°46'0 0.2
2016-Jul-03 00:31N 35°53' E 014°46'0 0.0
2016-Jul-02 23:31N 35°53' E 014°46'0 0.0
2016-Jul-02 22:31N 35°53' E 014°46'0 0.1
2016-Jul-02 21:31N 35°53' E 014°46'0 0.1
2016-Jul-02 20:31N 35°53' E 014°46'0 0.1
2016-Jul-02 19:32N 35°53' E 014°46'6 6.1
2016-Jul-02 18:33N 35°56' E 014°40'1111.0
2016-Jul-02 17:33N 36°02' E 014°29'1110.9
2016-Jul-02 16:33N 36°09' E 014°18'1010.3
2016-Jul-02 15:33N 36°12' E 014°05'1010.4
2016-Jul-02 14:33N 36°16' E 013°54'1010.5
2016-Jul-02 13:33N 36°21' E 013°42'1110.9
2016-Jul-02 12:34N 36°26' E 013°30'1111.0
2016-Jul-02 11:33N 36°31' E 013°18'1111.0
2016-Jul-02 10:33N 36°35' E 013°05'1110.9
2016-Jul-02 09:33N 36°40' E 012°53'1110.5
2016-Jul-02 08:33N 36°44' E 012°41'1110.6
2016-Jul-02 07:33N 36°48' E 012°29'1110.8
2016-Jul-02 06:33N 36°53' E 012°17'2210.8
2016-Jul-02 04:33N 37°03' E 011°53'2711.4
2016-Jul-02 02:12N 37°17' E 011°24'811.2
2016-Jul-02 01:31N 37°20' E 011°15'27511.0
2016-Jul-01 00:29N 37°16' E 005°30'1510.8
2016-Jun-30 23:04N 37°13' E 005°11'4010.7
2016-Jun-30 19:17N 37°09' E 004°21'1310.9
2016-Jun-30 18:08N 37°07' E 004°05'1010.5
2016-Jun-30 17:11N 37°06' E 003°53'810.4
2016-Jun-30 16:25N 37°06' E 003°43'910.1
2016-Jun-30 15:33N 37°05' E 003°32'1411.2
2016-Jun-30 14:17N 37°03' E 003°14'912.0
2016-Jun-30 13:33N 37°01' E 003°04'1211.8
2016-Jun-30 12:33N 36°60' E 002°49'1111.4
2016-Jun-30 11:33N 36°58' E 002°35'1211.8
2016-Jun-30 10:33N 36°56' E 002°20'1311.8
2016-Jun-30 09:29N 36°54' E 002°04'1111.6
2016-Jun-30 08:33N 36°52' E 001°51'1512.0
2016-Jun-30 07:20N 36°50' E 001°33'911.5
2016-Jun-30 06:33N 36°49' E 001°22'1211.6
2016-Jun-30 05:33N 36°47' E 001°08'1211.6
2016-Jun-30 04:32N 36°45' E 000°53'1111.3
2016-Jun-30 03:33N 36°43' E 000°40'1110.8
2016-Jun-30 02:33N 36°41' E 000°26'1110.9
2016-Jun-30 01:33N 36°39' E 000°13'1211.9
2016-Jun-30 00:33N 36°37' W 000°01'1212.0
2016-Jun-29 23:33N 36°36' W 000°16'1212.4
2016-Jun-29 22:33N 36°35' W 000°32'1212.3
2016-Jun-29 21:33N 36°33' W 000°47'1211.8
2016-Jun-29 20:33N 36°32' W 001°01'20311.3
2016-Jun-29 02:33N 35°59' W 005°10'1313.2
2016-Jun-29 01:33N 35°58' W 005°27'1613.2
2016-Jun-29 00:22N 35°54' W 005°45'165 5.3
2016-Jun-27 17:27N 33°37' W 007°36'  
Track history (hours):
 
Tides and Currents Weather Stations Pressure Air Temp Water Temp Dewpoint Dewpoint Depression Visibility Wind Speed Wind Dir Waves Ship Positions

Ocean King D

Last reported at 2016-Jul-06 20:13 UTC. Time now 2016-Jul-23 13:10 UTC.
Position N 31°16' E 032°19'.
Warning: this ship's position is 16 days out of date.

Length 190 m; draft 11.8 m.

Type: Cargo ship. MMSI: 538003892.

Date/timePositionNaut miles runAvg speedWind from/ knotsBaromVisibWave heightAir tempDewpointWater temp
2016-Jul-06 20:13N 31°16' E 032°19'7 1.4
2016-Jul-06 15:13N 31°23' E 032°20'3 1.1
2016-Jul-06 12:26N 31°25' E 032°18'8 9.2
2016-Jul-06 11:33N 31°32' E 032°12'9011.2
2016-Jul-06 03:32N 32°20' E 030°43'1110.9
2016-Jul-06 02:33N 32°21' E 030°30'  
2016-Jul-03 04:21N 35°44' E 015°20'910.8
2016-Jul-03 03:33N 35°47' E 015°10'1111.0
2016-Jul-03 02:33N 35°50' E 014°57'9 9.1
2016-Jul-03 01:33N 35°53' E 014°46'0 0.2
2016-Jul-03 00:31N 35°53' E 014°46'0 0.0
2016-Jul-02 23:31N 35°53' E 014°46'0 0.0
2016-Jul-02 22:31N 35°53' E 014°46'0 0.1
2016-Jul-02 21:31N 35°53' E 014°46'0 0.1
2016-Jul-02 20:31N 35°53' E 014°46'0 0.1
2016-Jul-02 19:32N 35°53' E 014°46'6 6.1
2016-Jul-02 18:33N 35°56' E 014°40'1111.0
2016-Jul-02 17:33N 36°02' E 014°29'1110.9
2016-Jul-02 16:33N 36°09' E 014°18'1010.3
2016-Jul-02 15:33N 36°12' E 014°05'1010.4
2016-Jul-02 14:33N 36°16' E 013°54'1010.5
2016-Jul-02 13:33N 36°21' E 013°42'1110.9
2016-Jul-02 12:34N 36°26' E 013°30'1111.0
2016-Jul-02 11:33N 36°31' E 013°18'1111.0
2016-Jul-02 10:33N 36°35' E 013°05'1110.9
2016-Jul-02 09:33N 36°40' E 012°53'1110.5
2016-Jul-02 08:33N 36°44' E 012°41'1110.6
2016-Jul-02 07:33N 36°48' E 012°29'1110.8
2016-Jul-02 06:33N 36°53' E 012°17'2210.8
2016-Jul-02 04:33N 37°03' E 011°53'2711.4
2016-Jul-02 02:12N 37°17' E 011°24'811.2
2016-Jul-02 01:31N 37°20' E 011°15'27511.0
2016-Jul-01 00:29N 37°16' E 005°30'1510.8
2016-Jun-30 23:04N 37°13' E 005°11'4010.7
2016-Jun-30 19:17N 37°09' E 004°21'1310.9
2016-Jun-30 18:08N 37°07' E 004°05'1010.5
2016-Jun-30 17:11N 37°06' E 003°53'810.4
2016-Jun-30 16:25N 37°06' E 003°43'910.1
2016-Jun-30 15:33N 37°05' E 003°32'1411.2
2016-Jun-30 14:17N 37°03' E 003°14'912.0
2016-Jun-30 13:33N 37°01' E 003°04'1211.8
2016-Jun-30 12:33N 36°60' E 002°49'1111.4
2016-Jun-30 11:33N 36°58' E 002°35'1211.8
2016-Jun-30 10:33N 36°56' E 002°20'1311.8
2016-Jun-30 09:29N 36°54' E 002°04'1111.6
2016-Jun-30 08:33N 36°52' E 001°51'1512.0
2016-Jun-30 07:20N 36°50' E 001°33'911.5
2016-Jun-30 06:33N 36°49' E 001°22'1211.6
2016-Jun-30 05:33N 36°47' E 001°08'1211.6
2016-Jun-30 04:32N 36°45' E 000°53'1111.3
2016-Jun-30 03:33N 36°43' E 000°40'1110.8
2016-Jun-30 02:33N 36°41' E 000°26'1110.9
2016-Jun-30 01:33N 36°39' E 000°13'1211.9
2016-Jun-30 00:33N 36°37' W 000°01'1212.0
2016-Jun-29 23:33N 36°36' W 000°16'1212.4
2016-Jun-29 22:33N 36°35' W 000°32'1212.3
2016-Jun-29 21:33N 36°33' W 000°47'1211.8
2016-Jun-29 20:33N 36°32' W 001°01'20311.3
2016-Jun-29 02:33N 35°59' W 005°10'1313.2
2016-Jun-29 01:33N 35°58' W 005°27'1613.2
2016-Jun-29 00:22N 35°54' W 005°45'165 5.3
2016-Jun-27 17:27N 33°37' W 007°36'  

Dump ship's entire track history